Time;durP1;ratioP1;P1;durP2;ratioP2;P2;SDS_P1;SDS_P2;PMS_P1;PMS_P2;Temp;Humidity;BMP_temperature;BMP_pressure;BME280_temperature;BME280_humidity;BME280_pressure;Samples;Min_cycle;Max_cycle;Signal;HPM_P1;HPM_P2
2021/04/21 00:04:50;;;;;;;27.30;15.30;;;8.50;97.30;;;;;;4995255;28;20472;-85
2021/04/21 00:07:21;;;;;;;28.53;15.20;;;8.50;97.30;;;;;;4983063;28;20967;-85
2021/04/21 00:09:48;;;;;;;25.67;16.03;;;8.50;97.30;;;;;;4962121;28;20409;-85
2021/04/21 00:12:16;;;;;;;27.40;15.43;;;8.50;97.30;;;;;;4961627;28;20461;-85
2021/04/21 00:14:42;;;;;;;31.50;15.10;;;8.50;97.30;;;;;;4978896;28;20410;-85
2021/04/21 00:17:08;;;;;;;27.90;15.10;;;8.50;97.30;;;;;;4978059;28;20976;-84
2021/04/21 00:19:37;;;;;;;25.73;15.57;;;8.50;97.30;;;;;;4960638;28;20425;-86
2021/04/21 00:22:06;;;;;;;31.07;16.67;;;8.50;97.30;;;;;;4960572;28;20641;-85
2021/04/21 00:24:35;;;;;;;26.47;15.60;;;8.50;97.30;;;;;;4960467;28;20811;-85
2021/04/21 00:27:02;;;;;;;32.53;16.53;;;8.50;97.30;;;;;;4978067;28;20512;-86
2021/04/21 00:29:29;;;;;;;28.40;16.77;;;8.40;97.30;;;;;;4960481;28;20425;-86
2021/04/21 00:31:58;;;;;;;24.57;15.43;;;8.40;97.30;;;;;;4960119;28;20725;-85
2021/04/21 00:34:26;;;;;;;23.40;15.17;;;8.40;97.30;;;;;;4960177;28;20504;-86
2021/04/21 00:36:55;;;;;;;33.73;17.83;;;8.40;97.30;;;;;;4977557;28;20775;-86
2021/04/21 00:39:22;;;;;;;28.70;16.80;;;8.40;97.30;;;;;;4977596;28;20437;-85
2021/04/21 00:41:47;;;;;;;29.00;15.33;;;8.40;97.30;;;;;;4960951;28;20414;-86
2021/04/21 00:44:26;;;;;;;26.50;17.13;;;8.40;97.30;;;;;;4961567;28;20425;-86
2021/04/21 00:46:58;;;;;;;27.23;16.60;;;8.40;97.30;;;;;;4966626;28;20561;-85
2021/04/21 00:49:38;;;;;;;26.10;16.40;;;8.40;97.30;;;;;;4980888;28;20410;-85
2021/04/21 00:52:14;;;;;;;27.00;15.63;;;8.30;97.30;;;;;;4980965;28;20460;-85
2021/04/21 00:54:43;;;;;;;25.10;15.27;;;8.30;97.30;;;;;;4998064;28;20385;-86
2021/04/21 00:57:29;;;;;;;28.17;16.63;;;8.20;97.30;;;;;;5012825;28;20476;-85
2021/04/21 01:00:19;;;;;;;30.47;15.93;;;8.10;97.30;;;;;;4997476;28;20397;-85
2021/04/21 01:03:18;;;;;;;29.77;16.10;;;8.10;97.30;;;;;;4980295;28;20547;-85
2021/04/21 01:06:06;;;;;;;33.87;16.70;;;8.10;97.30;;;;;;4979070;28;20417;-85
2021/04/21 01:08:40;;;;;;;31.40;17.50;;;8.10;97.30;;;;;;4979134;28;20955;-86
2021/04/21 01:11:16;;;;;;;30.63;17.40;;;8.10;97.30;;;;;;4979701;28;20474;-86
2021/04/21 01:13:48;;;;;;;27.43;16.30;;;8.10;97.30;;;;;;4997708;28;20409;-86
2021/04/21 01:16:17;;;;;;;27.77;16.47;;;8.10;97.30;;;;;;4979718;28;20835;-86
2021/04/21 01:18:44;;;;;;;26.37;16.57;;;8.10;97.30;;;;;;4978234;28;20426;-86
2021/04/21 01:21:25;;;;;;;30.97;16.23;;;8.10;97.30;;;;;;4978629;28;20413;-85
2021/04/21 01:23:54;;;;;;;33.67;17.20;;;8.00;97.30;;;;;;4978910;28;20427;-86
2021/04/21 01:26:48;;;;;;;29.90;16.70;;;8.00;97.30;;;;;;4995871;28;20409;-86
2021/04/21 01:29:26;;;;;;;30.53;16.40;;;8.00;97.30;;;;;;4979107;28;20419;-86
2021/04/21 01:31:54;;;;;;;27.60;17.40;;;7.90;97.30;;;;;;4978373;28;20488;-85
2021/04/21 01:34:22;;;;;;;28.33;15.67;;;7.90;97.30;;;;;;4978504;28;20409;-86
2021/04/21 01:36:56;;;;;;;27.90;16.13;;;7.90;97.30;;;;;;4995775;28;20854;-83
2021/04/21 01:39:23;;;;;;;24.37;15.90;;;7.80;97.30;;;;;;4978122;28;20998;-86
2021/04/21 01:41:57;;;;;;;32.23;16.47;;;7.80;97.30;;;;;;4978766;28;20436;-86
2021/04/21 01:44:29;;;;;;;25.93;15.50;;;7.80;97.30;;;;;;4979447;28;20413;-86
2021/04/21 01:49:48;;;;;;;27.10;15.17;;;7.60;97.30;;;;;;5043866;23;21003;-86
2021/04/21 01:52:37;;;;;;;29.97;15.00;;;7.50;97.30;;;;;;4960228;28;21164;-87
2021/04/21 01:55:55;;;;;;;29.27;15.87;;;7.50;97.30;;;;;;4960631;28;20460;-85
2021/04/21 02:01:27;;;;;;;;;;;;;;;;;;;;;
2021/04/21 02:08:06;;;;;;;25.20;14.97;;;7.20;97.30;;;;;;4909250;29;20983;-85
2021/04/21 02:10:41;;;;;;;24.30;15.70;;;7.10;97.30;;;;;;4916727;29;20522;-86
2021/04/21 02:13:12;;;;;;;25.70;15.07;;;7.00;97.30;;;;;;4948510;28;20473;-86
2021/04/21 02:16:16;;;;;;;28.97;16.57;;;7.00;97.30;;;;;;4959279;28;20526;-86
2021/04/21 02:18:54;;;;;;;25.97;15.47;;;6.90;97.30;;;;;;4956901;28;20512;-86
2021/04/21 02:21:50;;;;;;;30.90;17.00;;;6.90;97.30;;;;;;4975301;28;20565;-86
2021/04/21 02:24:36;;;;;;;32.60;17.77;;;6.90;97.30;;;;;;4958149;28;20414;-86
2021/04/21 02:27:24;;;;;;;33.40;16.53;;;6.90;97.30;;;;;;4958075;28;20820;-86
2021/04/21 02:30:08;;;;;;;29.07;17.30;;;6.90;97.30;;;;;;4958361;28;20529;-86
2021/04/21 02:32:53;;;;;;;28.03;15.00;;;6.80;97.30;;;;;;4957376;28;21095;-86
2021/04/21 02:35:43;;;;;;;30.50;16.13;;;6.80;97.30;;;;;;4957516;28;20948;-86
2021/04/21 02:38:18;;;;;;;28.00;16.57;;;6.80;97.30;;;;;;4957345;28;20808;-86
2021/04/21 02:40:56;;;;;;;27.97;15.40;;;6.80;97.30;;;;;;4957466;28;20413;-86
2021/04/21 02:43:54;;;;;;;27.00;16.20;;;6.90;97.30;;;;;;4958825;28;20402;-86
2021/04/21 02:46:22;;;;;;;36.97;18.00;;;6.80;97.30;;;;;;4952567;28;20418;-86
2021/04/21 02:49:14;;;;;;;32.60;17.83;;;6.80;97.30;;;;;;4974125;23;20501;-83
2021/04/21 02:52:02;;;;;;;31.83;17.60;;;6.80;97.30;;;;;;4958878;28;21040;-83
2021/04/21 02:55:03;;;;;;;35.03;18.60;;;6.80;97.30;;;;;;4976125;28;20430;-83
2021/04/21 02:57:55;;;;;;;31.63;19.20;;;6.80;97.30;;;;;;4951103;28;20417;-84
2021/04/21 03:00:41;;;;;;;33.30;18.50;;;6.80;97.30;;;;;;4939649;29;20430;-81
2021/04/21 03:03:25;;;;;;;36.40;18.83;;;6.80;97.30;;;;;;4939876;29;20940;-83
2021/04/21 03:05:59;;;;;;;29.40;17.27;;;6.70;97.30;;;;;;4956220;29;20929;-83
2021/04/21 03:08:31;;;;;;;31.17;18.53;;;6.60;97.30;;;;;;4939117;29;20949;-83
2021/04/21 03:11:09;;;;;;;32.37;17.87;;;6.60;97.30;;;;;;4956310;28;20403;-84
2021/04/21 03:13:46;;;;;;;31.20;17.47;;;6.50;97.30;;;;;;4939375;29;20439;-83
2021/04/21 03:16:15;;;;;;;34.77;17.43;;;6.50;97.30;;;;;;4939356;29;20602;-83
2021/04/21 03:18:44;;;;;;;28.77;15.90;;;6.40;97.30;;;;;;4937976;29;20447;-83
2021/04/21 03:21:21;;;;;;;30.33;16.30;;;6.40;97.30;;;;;;4954727;29;20410;-83
2021/04/21 03:23:50;;;;;;;27.73;16.03;;;6.30;97.30;;;;;;4937779;29;20444;-82
2021/04/21 03:26:20;;;;;;;28.33;16.60;;;6.20;97.30;;;;;;4954658;29;20426;-81
2021/04/21 03:28:49;;;;;;;;;;;6.10;97.30;;;;;;4937778;29;21028;-83
2021/04/21 03:31:16;;;;;;;32.67;18.53;;;6.10;97.30;;;;;;4954759;29;20380;-83
2021/04/21 03:33:50;;;;;;;34.00;19.17;;;6.10;97.30;;;;;;4937973;29;20862;-83
2021/04/21 03:36:18;;;;;;;39.27;20.43;;;6.20;97.30;;;;;;4937626;29;20527;-83
2021/04/21 03:38:46;;;;;;;38.30;19.77;;;6.10;97.30;;;;;;4937230;29;20431;-83
2021/04/21 03:41:12;;;;;;;41.03;21.07;;;6.20;97.30;;;;;;4938581;29;20415;-83
2021/04/21 03:43:40;;;;;;;36.87;21.27;;;6.20;97.30;;;;;;4939448;29;20470;-83
2021/04/21 03:46:06;;;;;;;;;;;6.20;97.30;;;;;;4940391;29;20502;-84
2021/04/21 03:48:34;;;;;;;37.87;19.50;;;6.20;97.30;;;;;;4938951;29;20170;-83
2021/04/21 03:51:00;;;;;;;43.87;20.47;;;6.20;97.30;;;;;;4939637;29;20441;-83
2021/04/21 03:53:30;;;;;;;35.33;19.10;;;6.10;97.30;;;;;;4956720;29;20415;-83
2021/04/21 03:55:56;;;;;;;37.77;20.63;;;6.10;97.30;;;;;;4939031;29;20427;-83
2021/04/21 03:58:25;;;;;;;39.43;20.47;;;6.00;97.30;;;;;;4938881;29;20449;-83
2021/04/21 04:01:01;;;;;;;39.00;19.83;;;6.00;97.30;;;;;;4955656;29;20458;-83
2021/04/21 04:03:28;;;;;;;34.20;18.80;;;6.00;97.30;;;;;;4938484;29;20431;-83
2021/04/21 04:06:13;;;;;;;41.13;21.30;;;6.00;97.30;;;;;;4955362;29;20414;-83
2021/04/21 04:08:51;;;;;;;35.17;19.80;;;6.00;97.30;;;;;;4938586;29;20442;-83
2021/04/21 04:11:22;;;;;;;38.87;20.63;;;6.00;97.30;;;;;;4938526;29;20455;-83
2021/04/21 04:13:52;;;;;;;42.23;21.00;;;6.00;97.30;;;;;;4937981;29;20447;-83
2021/04/21 04:16:20;;;;;;;37.93;20.70;;;6.00;97.30;;;;;;4954023;29;20414;-84
2021/04/21 04:18:47;;;;;;;40.77;21.20;;;6.00;97.30;;;;;;4936849;29;20427;-83
2021/04/21 04:21:14;;;;;;;42.70;21.07;;;6.00;97.30;;;;;;4954203;28;20422;-84
2021/04/21 04:23:42;;;;;;;42.37;21.67;;;6.10;97.30;;;;;;4938875;29;20945;-86
2021/04/21 04:26:08;;;;;;;40.13;22.07;;;6.10;97.30;;;;;;4955657;29;20411;-86
2021/04/21 04:28:36;;;;;;;37.43;18.87;;;6.10;97.30;;;;;;4940589;29;20965;-83
2021/04/21 04:31:03;;;;;;;41.60;20.80;;;6.10;97.30;;;;;;4939101;29;20453;-85
2021/04/21 04:33:31;;;;;;;43.90;22.27;;;6.00;97.30;;;;;;4939883;29;20518;-85
2021/04/21 04:35:57;;;;;;;46.47;22.53;;;6.00;97.30;;;;;;4938865;29;20802;-85
2021/04/21 04:38:24;;;;;;;38.10;21.20;;;6.00;97.30;;;;;;4930014;29;21011;-85
2021/04/21 04:40:54;;;;;;;44.03;22.37;;;6.00;97.30;;;;;;4925914;29;20427;-84
2021/04/21 04:43:21;;;;;;;38.83;21.90;;;6.00;97.30;;;;;;4934777;29;20443;-85
2021/04/21 04:45:59;;;;;;;39.40;20.73;;;6.00;97.30;;;;;;4927758;29;20427;-85
2021/04/21 04:48:44;;;;;;;45.50;22.27;;;5.90;97.30;;;;;;4938311;29;20470;-84
2021/04/21 04:51:10;;;;;;;41.57;22.50;;;6.00;97.30;;;;;;4936339;29;20804;-85
2021/04/21 04:53:38;;;;;;;40.90;21.77;;;6.00;97.30;;;;;;4922591;29;20215;-85
2021/04/21 04:56:06;;;;;;;39.90;21.90;;;6.00;97.30;;;;;;4938912;29;20208;-84
2021/04/21 04:58:33;;;;;;;41.70;22.80;;;6.00;97.30;;;;;;4921175;29;20509;-83
2021/04/21 05:01:07;;;;;;;48.33;23.30;;;6.00;97.30;;;;;;4919690;29;20435;-87
2021/04/21 05:03:47;;;;;;;44.60;22.00;;;6.10;97.30;;;;;;4938211;29;20422;-86
2021/04/21 05:06:15;;;;;;;46.05;23.85;;;6.10;97.30;;;;;;4921080;29;20439;-86
2021/04/21 05:08:50;;;;;;;;;;;6.10;97.30;;;;;;4921146;29;20295;-86
2021/04/21 05:11:18;;;;;;;59.87;26.20;;;6.20;97.30;;;;;;4952894;29;20043;-85
2021/04/21 05:13:47;;;;;;;;;;;6.20;97.30;;;;;;4919829;29;20553;-86
2021/04/21 05:16:28;;;;;;;52.03;27.37;;;6.30;97.30;;;;;;4919516;29;20349;-86
2021/04/21 05:18:53;;;;;;;;;;;6.40;97.30;;;;;;4919430;29;20503;-86
2021/04/21 05:21:28;;;;;;;41.40;22.40;;;6.40;97.30;;;;;;4919514;29;20381;-86
2021/04/21 05:24:11;;;;;;;40.27;22.73;;;6.50;97.30;;;;;;4919295;29;20647;-87
2021/04/21 05:27:14;;;;;;;38.87;20.50;;;6.50;97.30;;;;;;4954236;29;21046;-86
2021/04/21 05:30:01;;;;;;;37.00;19.50;;;6.60;97.30;;;;;;4955687;28;20435;-87
2021/04/21 05:32:45;;;;;;;35.67;20.10;;;6.70;97.30;;;;;;4938721;29;20466;-86
2021/04/21 05:35:42;;;;;;;35.80;19.23;;;6.80;97.30;;;;;;4935478;29;20789;-86
2021/04/21 05:38:25;;;;;;;32.97;19.07;;;6.80;97.30;;;;;;4987332;23;20507;-74
2021/04/21 05:41:09;;;;;;;42.77;19.10;;;6.90;97.30;;;;;;4996007;28;20443;-74
2021/04/21 05:44:12;;;;;;;33.43;18.03;;;7.00;97.30;;;;;;5013841;28;20392;-75
2021/04/21 05:46:53;;;;;;;33.43;17.13;;;7.10;97.30;;;;;;4995972;28;20408;-74
2021/04/21 05:49:50;;;;;;;32.43;17.80;;;7.10;97.30;;;;;;4995260;28;20416;-74
2021/04/21 05:52:37;;;;;;;37.20;17.60;;;7.20;97.30;;;;;;5012571;28;20452;-74
2021/04/21 05:55:11;;;;;;;31.27;17.00;;;7.30;97.30;;;;;;5012413;28;20469;-74
2021/04/21 05:57:40;;;;;;;35.17;18.33;;;7.40;97.30;;;;;;5012145;28;20431;-75
2021/04/21 06:00:43;;;;;;;25.77;15.83;;;7.50;97.30;;;;;;4994889;28;20416;-76
2021/04/21 06:03:10;;;;;;;26.20;14.47;;;7.60;97.30;;;;;;4994409;28;20427;-74
2021/04/21 06:05:36;;;;;;;27.33;12.60;;;7.70;97.30;;;;;;4994445;28;20432;-75
2021/04/21 06:08:12;;;;;;;29.63;13.40;;;7.80;97.30;;;;;;4994650;28;20515;-74
2021/04/21 06:10:38;;;;;;;22.70;13.00;;;7.90;97.30;;;;;;4995131;28;20419;-73
2021/04/21 06:13:04;;;;;;;20.17;11.63;;;8.00;97.30;;;;;;4994744;28;20464;-73
2021/04/21 06:15:31;;;;;;;21.30;12.50;;;8.20;97.30;;;;;;4994322;28;20990;-74
2021/04/21 06:18:05;;;;;;;23.70;10.80;;;8.30;97.30;;;;;;5012390;28;20215;-73
2021/04/21 06:20:38;;;;;;;23.40;10.90;;;8.40;97.30;;;;;;4994028;28;20424;-76
2021/04/21 06:23:11;;;;;;;20.57;9.73;;;8.50;97.30;;;;;;4994156;28;20419;-73
2021/04/21 06:25:39;;;;;;;17.77;9.17;;;8.60;97.30;;;;;;4994182;28;20927;-72
2021/04/21 06:28:18;;;;;;;17.30;8.30;;;8.70;97.30;;;;;;4993902;28;20416;-73
2021/04/21 06:30:46;;;;;;;20.30;8.40;;;8.80;97.30;;;;;;5011725;28;20447;-72
2021/04/21 06:33:12;;;;;;;11.43;7.23;;;8.90;97.30;;;;;;5011440;28;20951;-72
2021/04/21 06:35:39;;;;;;;24.10;9.00;;;9.10;97.30;;;;;;5011721;28;20444;-72
2021/04/21 06:38:06;;;;;;;14.27;8.20;;;9.20;97.30;;;;;;4993860;28;20310;-72
2021/04/21 06:40:33;;;;;;;13.20;7.50;;;9.30;97.30;;;;;;5011134;28;20424;-72
2021/04/21 06:43:00;;;;;;;12.33;7.20;;;9.40;97.30;;;;;;4994159;28;20419;-72
2021/04/21 06:45:31;;;;;;;12.10;7.20;;;9.50;97.30;;;;;;4993616;28;20430;-72
2021/04/21 06:47:58;;;;;;;14.77;7.63;;;9.60;97.30;;;;;;4993855;28;20426;-72
2021/04/21 06:50:37;;;;;;;14.77;7.70;;;9.70;97.20;;;;;;5011348;28;20954;-72
2021/04/21 06:53:05;;;;;;;15.97;8.13;;;9.90;97.20;;;;;;5011000;28;21027;-73
2021/04/21 06:55:32;;;;;;;14.70;6.80;;;10.00;96.50;;;;;;4993499;28;20420;-72
2021/04/21 06:57:59;;;;;;;17.93;8.50;;;10.00;96.50;;;;;;4994015;28;20420;-73
2021/04/21 07:00:26;;;;;;;22.40;8.57;;;10.10;96.80;;;;;;4993450;28;20413;-73
2021/04/21 07:02:58;;;;;;;20.73;8.00;;;10.30;96.40;;;;;;5011092;28;20840;-73
2021/04/21 07:05:39;;;;;;;22.90;7.57;;;10.40;96.90;;;;;;4993683;28;20552;-72
2021/04/21 07:08:18;;;;;;;22.27;8.40;;;10.50;95.70;;;;;;5011152;28;20412;-73
2021/04/21 07:10:45;;;;;;;19.97;7.43;;;10.60;96.10;;;;;;4992993;28;20436;-73
2021/04/21 07:13:26;;;;;;;16.20;9.00;;;10.60;94.70;;;;;;5011133;28;20962;-73
2021/04/21 07:16:00;;;;;;;27.80;8.53;;;10.80;95.50;;;;;;5011332;28;20412;-73
2021/04/21 07:18:57;;;;;;;12.90;7.60;;;10.80;94.10;;;;;;5011082;28;20479;-73
2021/04/21 07:21:24;;;;;;;18.97;8.40;;;10.90;94.80;;;;;;4992709;28;20479;-73
2021/04/21 07:23:55;;;;;;;28.30;8.20;;;11.00;96.00;;;;;;4993489;28;20404;-74
2021/04/21 07:26:36;;;;;;;14.50;7.63;;;11.10;94.40;;;;;;4993193;28;20408;-75
2021/04/21 07:29:02;;;;;;;12.30;7.20;;;11.20;93.70;;;;;;4993534;28;20412;-73
2021/04/21 07:31:28;;;;;;;21.07;7.60;;;11.20;93.30;;;;;;5010895;28;20471;-74
2021/04/21 07:33:54;;;;;;;13.93;7.10;;;11.20;93.90;;;;;;4993692;28;20415;-73
2021/04/21 07:36:28;;;;;;;10.50;6.77;;;11.30;91.60;;;;;;4993858;28;20788;-74
2021/04/21 07:39:05;;;;;;;18.93;8.17;;;11.40;92.80;;;;;;4993290;28;20221;-73
2021/04/21 07:41:41;;;;;;;16.07;7.93;;;11.60;92.30;;;;;;4993202;28;20962;-73
2021/04/21 07:44:25;;;;;;;16.70;7.10;;;11.70;91.90;;;;;;5011162;28;20408;-74
2021/04/21 07:46:53;;;;;;;19.43;7.60;;;11.80;91.30;;;;;;4993571;28;20423;-76
2021/04/21 07:49:28;;;;;;;14.40;7.40;;;11.90;90.30;;;;;;4993248;28;20518;-73
2021/04/21 07:51:54;;;;;;;14.27;6.90;;;12.00;90.40;;;;;;5010943;28;20455;-76
2021/04/21 07:54:22;;;;;;;17.97;7.13;;;12.20;89.30;;;;;;5010694;28;20412;-76
2021/04/21 07:56:55;;;;;;;15.90;7.63;;;12.30;90.00;;;;;;4994909;28;20173;-74
2021/04/21 07:59:26;;;;;;;19.07;7.43;;;12.50;90.30;;;;;;4997160;28;20416;-74
2021/04/21 08:01:53;;;;;;;22.67;7.10;;;12.60;86.90;;;;;;4996870;28;20436;-78
2021/04/21 08:04:22;;;;;;;15.40;7.97;;;12.60;87.90;;;;;;4996895;28;20412;-76
2021/04/21 08:06:50;;;;;;;19.47;8.00;;;12.70;87.70;;;;;;4997308;28;20420;-74
2021/04/21 08:09:17;;;;;;;13.70;5.63;;;12.80;88.40;;;;;;4996898;28;20915;-74
2021/04/21 08:11:43;;;;;;;13.20;6.57;;;12.90;87.70;;;;;;4996857;28;20459;-73
2021/04/21 08:14:10;;;;;;;14.47;6.30;;;13.00;85.10;;;;;;4996909;28;20506;-76
2021/04/21 08:16:36;;;;;;;23.17;6.87;;;13.10;85.40;;;;;;5014237;28;20401;-74
2021/04/21 08:19:17;;;;;;;12.13;6.53;;;13.20;86.20;;;;;;4996913;28;20458;-75
2021/04/21 08:21:44;;;;;;;14.83;6.60;;;13.40;86.70;;;;;;4996192;28;20582;-74
2021/04/21 08:24:14;;;;;;;11.63;6.47;;;13.50;85.90;;;;;;4996959;28;20412;-74
2021/04/21 08:26:44;;;;;;;12.13;6.33;;;13.50;85.00;;;;;;4997059;28;20424;-76
2021/04/21 08:29:12;;;;;;;12.97;6.20;;;13.60;85.20;;;;;;5014114;28;20424;-76
2021/04/21 08:31:41;;;;;;;14.00;7.03;;;13.70;85.60;;;;;;4996467;28;20463;-74
2021/04/21 08:34:07;;;;;;;11.37;6.20;;;13.70;85.70;;;;;;5014015;28;21103;-72
2021/04/21 08:36:32;;;;;;;12.47;6.57;;;13.80;85.10;;;;;;4996651;28;20626;-74
2021/04/21 08:38:58;;;;;;;18.20;7.63;;;13.90;84.90;;;;;;4996271;28;20221;-74
2021/04/21 08:41:25;;;;;;;17.43;6.80;;;14.00;85.80;;;;;;4996040;28;20197;-73
2021/04/21 08:43:51;;;;;;;12.53;7.57;;;14.10;86.30;;;;;;4996194;28;20231;-75
2021/04/21 08:46:18;;;;;;;11.00;6.30;;;14.10;85.10;;;;;;5013442;28;20820;-74
2021/04/21 08:48:45;;;;;;;14.47;6.80;;;14.10;82.40;;;;;;4991121;23;20205;-80
2021/04/21 08:51:17;;;;;;;19.90;6.83;;;14.10;82.10;;;;;;4958196;28;20446;-76
2021/04/21 08:54:11;;;;;;;14.60;6.80;;;14.10;83.60;;;;;;4976399;28;20446;-76
2021/04/21 08:56:41;;;;;;;13.57;6.40;;;14.20;82.10;;;;;;4976103;28;20410;-77
2021/04/21 08:59:08;;;;;;;16.80;7.60;;;14.30;82.30;;;;;;4959391;28;20414;-76
2021/04/21 09:01:34;;;;;;;15.50;6.40;;;14.30;81.20;;;;;;4959572;28;20501;-77
2021/04/21 09:04:01;;;;;;;13.20;7.07;;;14.30;82.40;;;;;;4958105;28;20792;-78
2021/04/21 09:06:26;;;;;;;16.00;7.03;;;14.40;82.70;;;;;;4957792;28;20497;-78
2021/04/21 09:08:54;;;;;;;11.67;6.70;;;14.50;82.60;;;;;;4957163;28;20509;-77
2021/04/21 09:11:20;;;;;;;17.47;7.77;;;14.70;82.40;;;;;;4957606;28;20202;-77
2021/04/21 09:13:47;;;;;;;19.27;7.03;;;14.80;81.70;;;;;;4959327;28;20449;-77
2021/04/21 09:16:13;;;;;;;12.77;7.27;;;15.00;83.50;;;;;;4960630;28;20171;-76
2021/04/21 09:18:39;;;;;;;12.30;6.63;;;15.10;82.30;;;;;;4960015;28;20414;-78
2021/04/21 09:21:15;;;;;;;15.53;6.90;;;15.10;81.50;;;;;;4958580;28;20537;-75
2021/04/21 09:23:42;;;;;;;12.53;6.77;;;15.10;78.90;;;;;;4958910;28;20406;-77
2021/04/21 09:26:14;;;;;;;13.23;6.70;;;15.10;80.40;;;;;;4959292;28;20425;-76
2021/04/21 09:28:41;;;;;;;14.23;6.80;;;15.10;79.70;;;;;;4959138;28;20481;-76
2021/04/21 09:31:22;;;;;;;15.30;6.30;;;15.30;80.60;;;;;;4958920;28;20855;-77
2021/04/21 09:34:05;;;;;;;11.60;6.90;;;15.40;79.70;;;;;;4958693;28;20484;-76
2021/04/21 09:36:36;;;;;;;12.30;6.60;;;15.40;79.70;;;;;;4959361;28;20411;-78
2021/04/21 09:39:21;;;;;;;17.40;6.03;;;15.50;79.90;;;;;;4959293;28;20417;-76
2021/04/21 09:41:50;;;;;;;16.40;6.83;;;15.50;78.90;;;;;;4958299;28;20981;-76
2021/04/21 09:44:28;;;;;;;14.57;7.07;;;15.70;79.20;;;;;;4957818;28;20418;-77
2021/04/21 09:46:54;;;;;;;15.40;6.80;;;16.00;78.90;;;;;;4958232;28;20424;-77
2021/04/21 09:49:35;;;;;;;18.17;7.70;;;16.10;78.10;;;;;;4976993;28;20465;-77
2021/04/21 09:52:12;;;;;;;12.73;7.70;;;16.20;77.30;;;;;;4958211;28;20556;-77
2021/04/21 09:54:41;;;;;;;12.80;6.50;;;16.20;77.60;;;;;;4960098;28;20876;-77
2021/04/21 09:57:11;;;;;;;13.30;6.80;;;16.20;76.00;;;;;;4960439;28;20422;-76
2021/04/21 09:59:38;;;;;;;16.20;7.97;;;16.10;75.00;;;;;;4957892;28;20464;-76
2021/04/21 10:02:24;;;;;;;14.10;6.73;;;16.10;74.70;;;;;;4957626;28;20442;-75
2021/04/21 10:04:50;;;;;;;12.07;6.90;;;16.20;75.20;;;;;;4976534;28;20633;-76
2021/04/21 10:07:19;;;;;;;10.37;6.80;;;16.30;75.70;;;;;;4958470;28;20500;-76
2021/04/21 10:09:48;;;;;;;10.87;7.33;;;16.30;75.40;;;;;;4958307;28;20318;-76
2021/04/21 10:12:32;;;;;;;15.70;6.73;;;16.20;75.40;;;;;;4976567;28;20516;-76
2021/04/21 10:15:00;;;;;;;11.63;7.30;;;16.10;73.90;;;;;;4958980;28;20422;-75
2021/04/21 10:17:30;;;;;;;14.03;7.00;;;16.10;74.80;;;;;;4958734;28;20425;-75
2021/04/21 10:20:01;;;;;;;16.03;7.07;;;16.10;76.20;;;;;;4958948;28;20452;-75
2021/04/21 10:22:27;;;;;;;8.83;5.80;;;16.20;74.10;;;;;;4958308;28;21003;-78
2021/04/21 10:24:54;;;;;;;14.80;6.60;;;16.20;73.60;;;;;;4963605;28;20426;-77
2021/04/21 10:27:20;;;;;;;16.23;7.00;;;16.20;73.30;;;;;;4982281;28;20422;-77
2021/04/21 10:29:46;;;;;;;12.53;7.13;;;16.20;74.00;;;;;;4957223;28;20485;-77
2021/04/21 10:32:15;;;;;;;11.17;7.27;;;16.30;74.90;;;;;;4956584;28;20458;-79
2021/04/21 10:34:44;;;;;;;16.27;8.57;;;16.40;75.20;;;;;;4959286;28;20414;-79
2021/04/21 10:37:12;;;;;;;20.53;8.27;;;16.50;73.30;;;;;;4975097;28;20429;-77
2021/04/21 10:39:39;;;;;;;12.60;7.23;;;16.50;73.70;;;;;;4976476;28;20459;-77
2021/04/21 10:42:08;;;;;;;14.13;7.67;;;16.60;74.30;;;;;;4961767;28;20520;-77
2021/04/21 10:44:35;;;;;;;12.73;7.97;;;16.60;72.40;;;;;;4961738;28;20432;-76
2021/04/21 10:47:10;;;;;;;12.73;7.60;;;16.70;73.10;;;;;;4952398;29;20419;-77
2021/04/21 10:49:56;;;;;;;12.97;7.23;;;16.90;72.30;;;;;;4938612;29;20474;-79
2021/04/21 10:52:28;;;;;;;16.83;7.20;;;17.10;73.40;;;;;;4942727;29;20557;-78
2021/04/21 10:54:56;;;;;;;14.63;7.40;;;17.10;71.70;;;;;;4940968;29;20933;-76
2021/04/21 10:57:21;;;;;;;10.87;7.27;;;17.00;72.30;;;;;;4950588;28;20500;-76
2021/04/21 11:00:07;;;;;;;21.13;7.77;;;16.90;72.30;;;;;;4980574;28;20871;-76
2021/04/21 11:02:45;;;;;;;13.53;7.30;;;16.90;73.60;;;;;;4980346;28;20574;-77
2021/04/21 11:05:19;;;;;;;12.07;6.57;;;17.30;74.50;;;;;;4980448;28;20427;-77
2021/04/21 11:08:03;;;;;;;16.93;7.50;;;17.40;73.00;;;;;;4980134;28;20459;-77
2021/04/21 11:10:40;;;;;;;12.73;6.80;;;17.40;71.30;;;;;;4969292;28;20441;-78
2021/04/21 11:13:10;;;;;;;11.70;6.90;;;17.40;70.60;;;;;;4970447;28;20449;-80
2021/04/21 11:15:47;;;;;;;15.17;8.33;;;17.40;73.60;;;;;;4968926;28;20418;-79
2021/04/21 11:18:27;;;;;;;16.47;7.60;;;17.50;74.80;;;;;;4959988;28;20425;-79
2021/04/21 11:21:02;;;;;;;10.73;7.03;;;17.50;72.70;;;;;;4940498;29;20434;-78
2021/04/21 11:24:03;;;;;;;13.83;7.53;;;17.50;72.40;;;;;;4942973;29;20426;-78
2021/04/21 11:26:30;;;;;;;12.73;7.90;;;17.40;73.90;;;;;;4941541;29;20854;-76
2021/04/21 11:29:08;;;;;;;11.57;7.30;;;17.60;73.70;;;;;;4966092;28;20413;-77
2021/04/21 11:31:42;;;;;;;15.77;8.43;;;17.70;74.20;;;;;;4978892;28;20452;-82
2021/04/21 11:34:27;;;;;;;12.93;8.23;;;17.70;73.90;;;;;;4979182;28;20831;-78
2021/04/21 11:36:59;;;;;;;14.33;7.90;;;17.50;71.90;;;;;;4969032;28;20459;-77
2021/04/21 11:39:41;;;;;;;12.60;8.17;;;17.50;74.30;;;;;;4970679;28;20414;-79
2021/04/21 11:42:23;;;;;;;14.70;7.50;;;17.70;72.60;;;;;;4958516;28;20484;-78
2021/04/21 11:45:01;;;;;;;14.40;7.70;;;17.70;72.90;;;;;;4967195;28;20421;-77
2021/04/21 11:47:46;;;;;;;11.53;7.50;;;17.80;72.60;;;;;;4980292;28;20448;-76
2021/04/21 11:50:13;;;;;;;11.37;7.60;;;17.80;73.10;;;;;;4997578;28;20535;-78
2021/04/21 11:53:07;;;;;;;12.80;8.27;;;17.90;73.10;;;;;;4981547;28;20465;-80
2021/04/21 11:55:35;;;;;;;13.33;6.80;;;18.20;72.40;;;;;;4964183;28;20429;-77
2021/04/21 11:58:18;;;;;;;9.80;6.60;;;18.40;73.00;;;;;;4961601;28;20425;-77
2021/04/21 12:01:21;;;;;;;12.47;7.50;;;18.60;68.80;;;;;;4965607;28;20476;-78
2021/04/21 12:03:48;;;;;;;15.20;7.40;;;18.50;72.40;;;;;;4879921;29;20428;-79
2021/04/21 12:06:16;;;;;;;13.23;8.10;;;18.30;70.30;;;;;;4935729;28;20461;-78
2021/04/21 12:08:50;;;;;;;15.57;7.63;;;18.30;71.40;;;;;;4957168;28;20426;-76
2021/04/21 12:11:33;;;;;;;15.93;7.40;;;18.60;70.20;;;;;;4958542;28;20438;-77
2021/04/21 12:13:59;;;;;;;16.17;6.53;;;18.80;68.90;;;;;;4958501;28;20425;-77
2021/04/21 12:16:28;;;;;;;12.20;6.10;;;18.50;67.70;;;;;;4955827;28;20430;-77
2021/04/21 12:18:54;;;;;;;10.60;6.53;;;18.50;69.40;;;;;;4977255;28;20462;-81
2021/04/21 12:21:22;;;;;;;12.20;7.00;;;18.40;68.30;;;;;;4977685;28;20514;-77
2021/04/21 12:23:56;;;;;;;16.23;7.20;;;18.50;67.50;;;;;;4959230;28;20450;-78
2021/04/21 12:26:27;;;;;;;10.83;6.90;;;18.50;67.90;;;;;;4956662;28;20424;-78
2021/04/21 12:29:09;;;;;;;11.13;6.00;;;18.80;68.90;;;;;;4953501;28;20521;-82
2021/04/21 12:31:35;;;;;;;11.43;6.40;;;18.80;67.30;;;;;;4954456;28;20460;-77
2021/04/21 12:34:03;;;;;;;13.50;6.57;;;18.70;65.80;;;;;;4956546;28;20502;-82
2021/04/21 12:36:32;;;;;;;9.43;6.77;;;18.90;65.90;;;;;;4957537;28;20424;-79
2021/04/21 12:39:17;;;;;;;11.60;7.00;;;18.90;65.00;;;;;;4956955;28;20905;-78
2021/04/21 12:42:01;;;;;;;7.93;5.90;;;19.00;65.80;;;;;;4955221;28;20810;-78
2021/04/21 12:44:33;;;;;;;9.37;5.30;;;19.10;65.60;;;;;;4977740;28;20468;-79
2021/04/21 12:47:06;;;;;;;15.67;5.77;;;19.40;66.30;;;;;;4960841;28;20480;-83
2021/04/21 12:49:42;;;;;;;11.20;5.60;;;19.80;64.50;;;;;;4960709;28;20561;-79
2021/04/21 12:52:14;;;;;;;11.90;5.80;;;19.60;63.40;;;;;;4960187;28;20552;-79
2021/04/21 12:54:42;;;;;;;10.70;5.67;;;19.40;65.00;;;;;;4979472;28;20425;-79
2021/04/21 12:57:10;;;;;;;11.20;5.73;;;19.30;65.90;;;;;;4960413;28;20422;-81
2021/04/21 12:59:43;;;;;;;13.53;6.07;;;19.30;66.20;;;;;;4960938;28;20414;-79
2021/04/21 13:02:16;;;;;;;10.03;6.40;;;19.20;64.80;;;;;;4960207;28;20475;-79
2021/04/21 13:04:43;;;;;;;7.27;5.40;;;19.10;67.50;;;;;;4969042;28;20429;-80
2021/04/21 13:07:24;;;;;;;10.60;5.43;;;19.40;65.10;;;;;;4970905;28;20438;-79
2021/04/21 13:09:50;;;;;;;10.20;5.60;;;19.40;62.90;;;;;;4987108;28;20456;-81
2021/04/21 13:12:20;;;;;;;7.33;5.47;;;19.40;64.20;;;;;;4966377;28;20472;-81
2021/04/21 13:14:47;;;;;;;9.30;5.70;;;19.60;66.50;;;;;;4964883;28;20179;-79
2021/04/21 13:17:13;;;;;;;13.37;6.00;;;19.70;63.40;;;;;;4964576;28;20426;-80
2021/04/21 13:19:52;;;;;;;10.10;4.77;;;19.90;65.90;;;;;;4979800;28;20472;-79
2021/04/21 13:22:23;;;;;;;9.90;5.20;;;20.20;64.40;;;;;;4962580;28;20441;-81
2021/04/21 13:24:59;;;;;;;8.03;5.10;;;20.30;63.60;;;;;;4963219;28;20493;-80
2021/04/21 13:27:34;;;;;;;8.60;5.93;;;20.20;60.90;;;;;;4963281;28;20529;-80